Time;durP1;ratioP1;P1;durP2;ratioP2;P2;SDS_P1;SDS_P2;PMS_P1;PMS_P2;Temp;Humidity;BMP_temperature;BMP_pressure;BME280_temperature;BME280_humidity;BME280_pressure;Samples;Min_cycle;Max_cycle;Signal;HPM_P1;HPM_P2
2022/08/05 00:01:00;;;;;;;;;;;;;;;;;;6266888;22;19972;-86
2022/08/05 00:03:26;;;;;;;;;;;;;;;;;;6270929;22;19985;-86
2022/08/05 00:05:52;;;;;;;;;;;;;;;;;;6272922;22;19914;-86
2022/08/05 00:08:18;;;;;;;;;;;;;;;;;;6268667;22;20271;-86
2022/08/05 00:10:44;;;;;;;;;;;;;;;;;;6269837;22;19914;-86
2022/08/05 00:13:10;;;;;;;;;;;;;;;;;;6267049;22;19917;-86
2022/08/05 00:15:36;;;;;;;;;;;;;;;;;;6293582;22;19922;-86
2022/08/05 00:18:02;;;;;;;;;;;;;;;;;;6239991;22;20316;-86
2022/08/05 00:20:28;;;;;;;;;;;;;;;;;;6295443;22;19981;-87
2022/08/05 00:22:55;;;;;;;;;;;;;;;;;;6267611;22;19961;-86
2022/08/05 00:25:21;;;;;;;;;;;;;;;;;;6238277;22;20131;-86
2022/08/05 00:27:47;;;;;;;;;;;;;;;;;;6294052;22;19921;-86
2022/08/05 00:30:13;;;;;;;;;;;;;;;;;;6292036;22;20635;-86
2022/08/05 00:32:39;;;;;;;;;;;;;;;;;;6294178;22;19964;-86
2022/08/05 00:35:05;;;;;;;;;;;;;;;;;;6290192;22;20343;-86
2022/08/05 00:37:31;;;;;;;;;;;;;;;;;;6292306;22;20324;-86
2022/08/05 00:39:57;;;;;;;;;;;;;;;;;;6292363;22;20327;-86
2022/08/05 00:42:23;;;;;;;;;;;;;;;;;;6263348;22;19944;-86
2022/08/05 00:44:49;;;;;;;;;;;;;;;;;;6263700;22;19918;-86
2022/08/05 00:47:15;;;;;;;;;;;;;;;;;;6261755;22;19922;-86
2022/08/05 00:49:41;;;;;;;;;;;;;;;;;;6289726;22;19921;-86
2022/08/05 00:52:07;;;;;;;;;;;;;;;;;;6287139;22;19929;-87
2022/08/05 00:54:33;;;;;;;;;;;;;;;;;;6265907;22;19914;-86
2022/08/05 00:56:58;;;;;;;;;;;;;;;;;;6290043;22;20414;-86
2022/08/05 00:59:24;;;;;;;;;;;;;;;;;;6292048;22;19919;-86
2022/08/05 01:01:50;;;;;;;;;;;;;;;;;;6264342;22;19914;-86
2022/08/05 01:04:16;;;;;;;;;;;;;;;;;;6259703;22;20014;-87
2022/08/05 01:06:42;;;;;;;;;;;;;;;;;;6262389;22;19968;-86
2022/08/05 01:09:08;;;;;;;;;;;;;;;;;;6287750;22;20332;-87
2022/08/05 01:11:34;;;;;;;;;;;;;;;;;;6263267;22;20398;-86
2022/08/05 01:14:00;;;;;;;;;;;;;;;;;;6288329;22;20674;-86
2022/08/05 01:16:26;;;;;;;;;;;;;;;;;;6292111;22;20321;-87
2022/08/05 01:18:53;;;;;;;;;;;;;;;;;;6290017;22;19923;-86
2022/08/05 01:21:22;;;;;;;;;;;;;;;;;;6288011;22;19930;-86
2022/08/05 01:23:48;;;;;;;;;;;;;;;;;;6263180;22;19925;-86
2022/08/05 01:26:14;;;;;;;;;;;;;;;;;;6286713;22;19914;-86
2022/08/05 01:28:40;;;;;;;;;;;;;;;;;;6265661;22;20338;-86
2022/08/05 01:31:06;;;;;;;;;;;;;;;;;;6263368;22;20168;-86
2022/08/05 01:33:32;;;;;;;;;;;;;;;;;;6263669;22;19922;-86
2022/08/05 01:35:58;;;;;;;;;;;;;;;;;;6261958;22;20010;-86
2022/08/05 01:38:24;;;;;;;;;;;;;;;;;;6262297;22;20481;-86
2022/08/05 01:40:50;;;;;;;;;;;;;;;;;;6262618;22;19973;-86
2022/08/05 01:43:16;;;;;;;;;;;;;;;;;;6261934;22;19918;-86
2022/08/05 01:45:41;;;;;;;;;;;;;;;;;;6292479;22;19954;-86
2022/08/05 01:48:07;;;;;;;;;;;;;;;;;;6240046;22;19911;-86
2022/08/05 01:50:33;;;;;;;;;;;;;;;;;;6266131;22;19981;-86
2022/08/05 01:52:59;;;;;;;;;;;;;;;;;;6289986;22;20351;-85
2022/08/05 01:55:25;;;;;;;;;;;;;;;;;;6294597;22;20014;-86
2022/08/05 01:57:51;;;;;;;;;;;;;;;;;;6295340;22;20375;-86
2022/08/05 02:00:17;;;;;;;;;;;;;;;;;;6292980;22;20374;-86
2022/08/05 02:02:43;;;;;;;;;;;;;;;;;;6295543;22;19986;-86
2022/08/05 02:05:09;;;;;;;;;;;;;;;;;;6266088;22;19915;-86
2022/08/05 02:07:35;;;;;;;;;;;;;;;;;;6294620;22;20342;-85
2022/08/05 02:10:01;;;;;;;;;;;;;;;;;;6265688;22;20212;-86
2022/08/05 02:12:27;;;;;;;;;;;;;;;;;;6294998;22;19942;-86
2022/08/05 02:14:53;;;;;;;;;;;;;;;;;;6293881;22;19937;-86
2022/08/05 02:17:19;;;;;;;;;;;;;;;;;;6288660;22;19958;-86
2022/08/05 02:19:45;;;;;;;;;;;;;;;;;;6262500;22;19941;-86
2022/08/05 02:22:11;;;;;;;;;;;;;;;;;;6283910;22;19910;-86
2022/08/05 02:24:37;;;;;;;;;;;;;;;;;;6265773;22;19914;-86
2022/08/05 02:27:03;;;;;;;;;;;;;;;;;;6258980;22;20021;-86
2022/08/05 02:29:28;;;;;;;;;;;;;;;;;;6263285;22;20034;-86
2022/08/05 02:31:54;;;;;;;;;;;;;;;;;;6263547;22;19915;-86
2022/08/05 02:34:20;;;;;;;;;;;;;;;;;;6260977;22;19980;-86
2022/08/05 02:36:46;;;;;;;;;;;;;;;;;;6237452;22;19964;-86
2022/08/05 02:39:12;;;;;;;;;;;;;;;;;;6286691;22;19919;-86
2022/08/05 02:41:38;;;;;;;;;;;;;;;;;;6293251;22;19964;-86
2022/08/05 02:44:04;;;;;;;;;;;;;;;;;;6263948;22;19926;-86
2022/08/05 02:46:30;;;;;;;;;;;;;;;;;;6231704;22;19915;-86
2022/08/05 02:48:56;;;;;;;;;;;;;;;;;;6233729;22;20251;-86
2022/08/05 02:51:22;;;;;;;;;;;;;;;;;;6231217;22;19915;-86
2022/08/05 02:53:48;;;;;;;;;;;;;;;;;;6233759;22;19911;-86
2022/08/05 02:56:14;;;;;;;;;;;;;;;;;;6228659;22;19949;-86
2022/08/05 02:58:40;;;;;;;;;;;;;;;;;;6259770;22;19998;-86
2022/08/05 03:01:06;;;;;;;;;;;;;;;;;;6229526;22;19973;-86
2022/08/05 03:03:34;;;;;;;;;;;;;;;;;;6260245;22;19990;-86
2022/08/05 03:06:00;;;;;;;;;;;;;;;;;;6258657;22;19926;-86
2022/08/05 03:08:26;;;;;;;;;;;;;;;;;;6233456;22;19915;-86
2022/08/05 03:10:51;;;;;;;;;;;;;;;;;;6257907;22;19922;-86
2022/08/05 03:13:17;;;;;;;;;;;;;;;;;;6257087;22;19942;-86
2022/08/05 03:15:43;;;;;;;;;;;;;;;;;;6206459;22;20000;-86
2022/08/05 03:18:09;;;;;;;;;;;;;;;;;;6229400;22;19919;-86
2022/08/05 03:20:35;;;;;;;;;;;;;;;;;;6229827;22;20242;-86
2022/08/05 03:23:01;;;;;;;;;;;;;;;;;;6227924;22;19917;-86
2022/08/05 03:25:27;;;;;;;;;;;;;;;;;;6229346;22;20419;-86
2022/08/05 03:27:53;;;;;;;;;;;;;;;;;;6231641;22;19915;-86
2022/08/05 03:30:19;;;;;;;;;;;;;;;;;;6227178;22;19949;-86
2022/08/05 03:32:45;;;;;;;;;;;;;;;;;;6230645;22;20183;-85
2022/08/05 03:35:11;;;;;;;;;;;;;;;;;;6226652;22;19915;-86
2022/08/05 03:37:37;;;;;;;;;;;;;;;;;;6228462;22;19938;-86
2022/08/05 03:40:07;;;;;;;;;;;;;;;;;;6226835;22;19919;-86
2022/08/05 03:42:33;;;;;;;;;;;;;;;;;;6231446;22;19919;-86
2022/08/05 03:44:59;;;;;;;;;;;;;;;;;;6227104;22;20006;-86
2022/08/05 03:47:25;;;;;;;;;;;;;;;;;;6232154;22;20297;-86
2022/08/05 03:49:51;;;;;;;;;;;;;;;;;;6235303;22;20343;-86
2022/08/05 03:52:17;;;;;;;;;;;;;;;;;;6231948;22;20723;-86
2022/08/05 03:54:43;;;;;;;;;;;;;;;;;;6234219;22;19946;-86
2022/08/05 03:57:09;;;;;;;;;;;;;;;;;;6231305;22;19985;-86
2022/08/05 03:59:35;;;;;;;;;;;;;;;;;;6258460;22;19922;-86
2022/08/05 04:02:01;;;;;;;;;;;;;;;;;;6228172;22;19967;-86
2022/08/05 04:04:27;;;;;;;;;;;;;;;;;;6234694;22;20209;-86
2022/08/05 04:06:53;;;;;;;;;;;;;;;;;;6233398;22;19915;-86
2022/08/05 04:09:19;;;;;;;;;;;;;;;;;;6231206;22;20338;-86
2022/08/05 04:11:45;;;;;;;;;;;;;;;;;;6235548;22;19915;-86
2022/08/05 04:14:11;;;;;;;;;;;;;;;;;;6232261;22;20287;-86
2022/08/05 04:16:37;;;;;;;;;;;;;;;;;;6234090;22;20247;-86
2022/08/05 04:19:03;;;;;;;;;;;;;;;;;;6256762;22;20018;-86
2022/08/05 04:21:29;;;;;;;;;;;;;;;;;;6258622;22;19915;-86
2022/08/05 04:23:57;;;;;;;;;;;;;;;;;;6227657;22;20291;-86
2022/08/05 04:26:23;;;;;;;;;;;;;;;;;;6228118;22;19922;-86
2022/08/05 04:28:49;;;;;;;;;;;;;;;;;;6231538;22;19919;-86
2022/08/05 04:31:14;;;;;;;;;;;;;;;;;;6227656;22;19915;-86
2022/08/05 04:33:40;;;;;;;;;;;;;;;;;;6230925;22;19915;-86
2022/08/05 04:36:08;;;;;;;;;;;;;;;;;;6254324;22;19923;-86
2022/08/05 04:38:34;;;;;;;;;;;;;;;;;;6231325;22;19993;-87
2022/08/05 04:41:00;;;;;;;;;;;;;;;;;;6230714;22;20007;-86
2022/08/05 04:43:26;;;;;;;;;;;;;;;;;;6232545;22;19919;-86
2022/08/05 04:45:52;;;;;;;;;;;;;;;;;;6235468;22;19915;-86
2022/08/05 04:48:18;;;;;;;;;;;;;;;;;;6231383;22;20364;-86
2022/08/05 04:50:44;;;;;;;;;;;;;;;;;;6229779;22;19923;-86
2022/08/05 04:53:09;;;;;;;;;;;;;;;;;;6228941;22;20150;-86
2022/08/05 04:55:36;;;;;;;;;;;;;;;;;;6231644;22;19915;-86
2022/08/05 04:58:02;;;;;;;;;;;;;;;;;;6205018;22;19911;-86
2022/08/05 05:00:27;;;;;;;;;;;;;;;;;;6230100;22;19994;-86
2022/08/05 05:02:53;;;;;;;;;;;;;;;;;;6231368;22;20014;-86
2022/08/05 05:05:19;;;;;;;;;;;;;;;;;;6228159;22;19919;-86
2022/08/05 05:07:45;;;;;;;;;;;;;;;;;;6232135;22;19915;-86
2022/08/05 05:10:11;;;;;;;;;;;;;;;;;;6204483;22;19911;-86
2022/08/05 05:12:37;;;;;;;;;;;;;;;;;;6206308;22;19914;-87
2022/08/05 05:15:03;;;;;;;;;;;;;;;;;;6226445;22;19990;-86
2022/08/05 05:17:29;;;;;;;;;;;;;;;;;;6258563;22;19919;-86
2022/08/05 05:19:55;;;;;;;;;;;;;;;;;;6233552;22;20014;-86
2022/08/05 05:22:21;;;;;;;;;;;;;;;;;;6230012;22;20350;-86
2022/08/05 05:24:47;;;;;;;;;;;;;;;;;;6232477;22;20359;-86
2022/08/05 05:27:13;;;;;;;;;;;;;;;;;;6231151;22;19954;-86
2022/08/05 05:29:39;;;;;;;;;;;;;;;;;;6235307;22;19919;-86
2022/08/05 05:32:05;;;;;;;;;;;;;;;;;;6231282;22;19981;-86
2022/08/05 05:34:31;;;;;;;;;;;;;;;;;;6257397;22;19915;-86
2022/08/05 05:36:57;;;;;;;;;;;;;;;;;;6231814;22;20372;-86
2022/08/05 05:39:23;;;;;;;;;;;;;;;;;;6234428;22;19958;-86
2022/08/05 05:41:49;;;;;;;;;;;;;;;;;;6235525;22;19973;-86
2022/08/05 05:44:15;;;;;;;;;;;;;;;;;;6232112;22;19919;-85
2022/08/05 05:46:41;;;;;;;;;;;;;;;;;;6234473;22;19922;-86
2022/08/05 05:49:07;;;;;;;;;;;;;;;;;;6232844;22;19986;-86
2022/08/05 05:51:33;;;;;;;;;;;;;;;;;;6235810;22;19915;-86
2022/08/05 05:53:59;;;;;;;;;;;;;;;;;;6232895;22;19919;-85
2022/08/05 05:56:25;;;;;;;;;;;;;;;;;;6260461;22;19915;-86
2022/08/05 05:58:51;;;;;;;;;;;;;;;;;;6237262;22;19925;-86
2022/08/05 06:01:16;;;;;;;;;;;;;;;;;;6234811;22;20336;-86
2022/08/05 06:03:42;;;;;;;;;;;;;;;;;;6261621;22;20037;-85
2022/08/05 06:06:08;;;;;;;;;;;;;;;;;;6233255;22;20426;-84
2022/08/05 06:08:34;;;;;;;;;;;;;;;;;;6259951;22;19917;-84
2022/08/05 06:11:00;;;;;;;;;;;;;;;;;;6231075;22;19982;-84
2022/08/05 06:13:26;;;;;;;;;;;;;;;;;;6258846;22;19915;-85
2022/08/05 06:15:52;;;;;;;;;;;;;;;;;;6262139;22;19915;-84
2022/08/05 06:18:18;;;;;;;;;;;;;;;;;;6261217;22;21006;-84
2022/08/05 06:20:44;;;;;;;;;;;;;;;;;;6262170;22;20342;-85
2022/08/05 06:23:10;;;;;;;;;;;;;;;;;;6256906;22;20579;-84
2022/08/05 06:25:36;;;;;;;;;;;;;;;;;;6257966;22;19915;-85
2022/08/05 06:28:02;;;;;;;;;;;;;;;;;;6256793;22;19915;-85
2022/08/05 06:30:28;;;;;;;;;;;;;;;;;;6235090;22;19976;-84
2022/08/05 06:32:54;;;;;;;;;;;;;;;;;;6253656;22;20034;-85
2022/08/05 06:35:20;;;;;;;;;;;;;;;;;;6254906;22;19915;-84
2022/08/05 06:37:46;;;;;;;;;;;;;;;;;;6256571;22;19922;-84
2022/08/05 06:40:12;;;;;;;;;;;;;;;;;;6253415;22;19922;-85
2022/08/05 06:42:38;;;;;;;;;;;;;;;;;;6233851;22;19922;-84
2022/08/05 06:45:04;;;;;;;;;;;;;;;;;;6255663;22;19930;-84
2022/08/05 06:47:30;;;;;;;;;;;;;;;;;;6260188;22;19911;-84
2022/08/05 06:49:56;;;;;;;;;;;;;;;;;;6257890;22;19915;-84
2022/08/05 06:52:22;;;;;;;;;;;;;;;;;;6254850;22;19915;-84
2022/08/05 06:54:48;;;;;;;;;;;;;;;;;;6256961;22;20284;-84
2022/08/05 06:57:17;;;;;;;;;;;;;;;;;;6201062;22;19915;-84
2022/08/05 06:59:42;;;;;;;;;;;;;;;;;;6255709;22;20346;-84
2022/08/05 07:02:09;;;;;;;;;;;;;;;;;;6252136;22;19911;-84
2022/08/05 07:04:35;;;;;;;;;;;;;;;;;;6204680;22;19915;-84
2022/08/05 07:07:01;;;;;;;;;;;;;;;;;;6200545;22;19953;-84
2022/08/05 07:09:26;;;;;;;;;;;;;;;;;;6226582;22;19924;-85
2022/08/05 07:11:55;;;;;;;;;;;;;;;;;;6227296;22;20406;-84
2022/08/05 07:17:05;;;;;;;;;;;;;;;;;;6227376;22;19949;-84
2022/08/05 07:19:41;;;;;;;;;;;;;;;;;;6259610;22;19926;-84
2022/08/05 07:22:09;;;;;;;;;;;;;;;;;;6254982;22;20221;-84
2022/08/05 07:24:36;;;;;;;;;;;;;;;;;;6259008;22;19934;-84
2022/08/05 07:27:03;;;;;;;;;;;;;;;;;;6257134;22;19992;-83
2022/08/05 07:29:29;;;;;;;;;;;;;;;;;;6232221;22;20109;-84
2022/08/05 07:31:55;;;;;;;;;;;;;;;;;;6230359;22;19915;-84
2022/08/05 07:34:21;;;;;;;;;;;;;;;;;;6204078;22;19985;-84
2022/08/05 07:36:47;;;;;;;;;;;;;;;;;;6206526;22;19969;-84
2022/08/05 07:39:12;;;;;;;;;;;;;;;;;;6253124;22;19919;-84
2022/08/05 07:41:38;;;;;;;;;;;;;;;;;;6234496;22;19946;-84
2022/08/05 07:44:04;;;;;;;;;;;;;;;;;;6282486;22;19922;-84
2022/08/05 07:46:30;;;;;;;;;;;;;;;;;;6291698;22;20352;-85
2022/08/05 07:48:56;;;;;;;;;;;;;;;;;;6263653;22;19915;-84
2022/08/05 07:51:22;;;;;;;;;;;;;;;;;;6262419;22;19915;-84
2022/08/05 07:53:48;;;;;;;;;;;;;;;;;;6267773;22;19922;-84
2022/08/05 07:56:14;;;;;;;;;;;;;;;;;;6264107;22;19978;-84
2022/08/05 07:58:40;;;;;;;;;;;;;;;;;;6268330;22;19923;-84
2022/08/05 08:01:06;;;;;;;;;;;;;;;;;;6289539;22;20633;-87
2022/08/05 08:03:32;;;;;;;;;;;;;;;;;;6265815;22;20243;-86
2022/08/05 08:05:58;;;;;;;;;;;;;;;;;;6265289;22;19915;-86
2022/08/05 08:08:24;;;;;;;;;;;;;;;;;;6269643;22;19914;-85
2022/08/05 08:10:50;;;;;;;;;;;;;;;;;;6271741;22;19918;-86
2022/08/05 08:13:16;;;;;;;;;;;;;;;;;;6269135;22;20235;-86
2022/08/05 08:15:42;;;;;;;;;;;;;;;;;;6268860;22;19964;-86
2022/08/05 08:18:08;;;;;;;;;;;;;;;;;;6263310;22;19937;-86
2022/08/05 08:20:34;;;;;;;;;;;;;;;;;;6265845;22;19953;-86
2022/08/05 08:23:01;;;;;;;;;;;;;;;;;;6291019;22;19922;-86
2022/08/05 08:25:27;;;;;;;;;;;;;;;;;;6267222;22;19954;-86
2022/08/05 08:27:53;;;;;;;;;;;;;;;;;;6290312;22;19922;-86
2022/08/05 08:30:19;;;;;;;;;;;;;;;;;;6262904;22;19918;-86
2022/08/05 08:32:45;;;;;;;;;;;;;;;;;;6264980;22;20614;-86
2022/08/05 08:35:11;;;;;;;;;;;;;;;;;;6292124;22;20350;-85
2022/08/05 08:37:37;;;;;;;;;;;;;;;;;;6266824;22;20338;-86
2022/08/05 08:40:03;;;;;;;;;;;;;;;;;;6263548;22;19919;-86
2022/08/05 08:42:29;;;;;;;;;;;;;;;;;;6292869;22;19915;-86
2022/08/05 08:44:55;;;;;;;;;;;;;;;;;;6266462;22;19986;-86
2022/08/05 08:47:22;;;;;;;;;;;;;;;;;;6292673;22;19915;-85
2022/08/05 08:49:47;;;;;;;;;;;;;;;;;;6269735;22;19915;-86
2022/08/05 08:52:13;;;;;;;;;;;;;;;;;;6263725;22;19918;-85
2022/08/05 08:54:39;;;;;;;;;;;;;;;;;;6284452;22;19919;-86
2022/08/05 08:57:12;;;;;;;;;;;;;;;;;;6286593;22;20050;-86
2022/08/05 09:03:00;;;;;;;;;;;;;;;;;;6214968;22;19915;-86
2022/08/05 09:05:26;;;;;;;;;;;;;;;;;;6289858;22;19915;-85
2022/08/05 09:07:58;;;;;;;;;;;;;;;;;;6264714;22;19922;-85
2022/08/05 09:10:24;;;;;;;;;;;;;;;;;;6238500;22;19914;-85
2022/08/05 09:12:50;;;;;;;;;;;;;;;;;;6265085;22;20262;-85
2022/08/05 09:15:16;;;;;;;;;;;;;;;;;;6234994;22;19950;-86
2022/08/05 09:17:43;;;;;;;;;;;;;;;;;;6261458;22;19918;-86
2022/08/05 09:23:12;;;;;;;;;;;;;;;;;;6298459;22;19949;-85
2022/08/05 09:25:38;;;;;;;;;;;;;;;;;;6289002;22;19915;-86
2022/08/05 09:28:04;;;;;;;;;;;;;;;;;;6259958;22;19997;-86
2022/08/05 09:30:30;;;;;;;;;;;;;;;;;;6264216;22;20406;-86
2022/08/05 09:32:56;;;;;;;;;;;;;;;;;;6263641;22;19942;-86
2022/08/05 09:35:25;;;;;;;;;;;;;;;;;;6264004;22;19937;-86
2022/08/05 09:37:51;;;;;;;;;;;;;;;;;;6289747;22;20335;-86
2022/08/05 09:40:17;;;;;;;;;;;;;;;;;;6261068;22;20347;-86
2022/08/05 09:42:44;;;;;;;;;;;;;;;;;;6232737;22;20336;-86
2022/08/05 09:45:10;;;;;;;;;;;;;;;;;;6206464;22;19919;-86
2022/08/05 09:47:36;;;;;;;;;;;;;;;;;;6212525;22;20029;-85
2022/08/05 09:50:02;;;;;;;;;;;;;;;;;;6261045;22;20320;-86
2022/08/05 09:52:28;;;;;;;;;;;;;;;;;;6213465;22;19911;-86
2022/08/05 09:54:54;;;;;;;;;;;;;;;;;;6264240;22;19915;-86
2022/08/05 09:57:20;;;;;;;;;;;;;;;;;;6261224;22;19922;-86
2022/08/05 09:59:46;;;;;;;;;;;;;;;;;;6234726;22;19919;-86
2022/08/05 10:02:12;;;;;;;;;;;;;;;;;;6210989;22;20041;-86
2022/08/05 10:04:39;;;;;;;;;;;;;;;;;;6214207;22;20205;-86
2022/08/05 10:07:07;;;;;;;;;;;;;;;;;;6212044;22;19918;-86
2022/08/05 10:09:33;;;;;;;;;;;;;;;;;;6265395;22;19974;-86
2022/08/05 10:11:59;;;;;;;;;;;;;;;;;;6261531;22;19919;-86
2022/08/05 10:14:25;;;;;;;;;;;;;;;;;;6212401;22;19957;-86
2022/08/05 10:16:51;;;;;;;;;;;;;;;;;;6259984;22;19911;-86
2022/08/05 10:19:17;;;;;;;;;;;;;;;;;;6205346;22;19923;-85
2022/08/05 10:21:44;;;;;;;;;;;;;;;;;;6209531;22;19915;-86
2022/08/05 10:24:15;;;;;;;;;;;;;;;;;;6228362;22;19915;-87
2022/08/05 10:26:42;;;;;;;;;;;;;;;;;;6206593;22;19918;-86
2022/08/05 10:29:08;;;;;;;;;;;;;;;;;;6203897;22;19915;-86
2022/08/05 10:31:50;;;;;;;;;;;;;;;;;;6207803;22;20321;-86
2022/08/05 10:34:20;;;;;;;;;;;;;;;;;;6203674;22;20848;-86
2022/08/05 10:36:48;;;;;;;;;;;;;;;;;;6235541;22;20220;-87
2022/08/05 10:39:14;;;;;;;;;;;;;;;;;;6254575;22;19922;-87
2022/08/05 10:41:40;;;;;;;;;;;;;;;;;;6204525;22;20014;-86
2022/08/05 10:44:06;;;;;;;;;;;;;;;;;;6277268;22;20311;-86
2022/08/05 10:46:32;;;;;;;;;;;;;;;;;;6262242;22;19911;-87
2022/08/05 10:48:58;;;;;;;;;;;;;;;;;;6287187;22;19914;-86
2022/08/05 10:51:24;;;;;;;;;;;;;;;;;;6261869;22;19914;-86
2022/08/05 10:53:50;;;;;;;;;;;;;;;;;;6288865;22;19922;-86
2022/08/05 10:56:16;;;;;;;;;;;;;;;;;;6261413;22;19914;-86
2022/08/05 10:58:42;;;;;;;;;;;;;;;;;;6261515;22;19919;-86
2022/08/05 11:01:08;;;;;;;;;;;;;;;;;;6258974;22;20289;-86
2022/08/05 11:03:35;;;;;;;;;;;;;;;;;;6237798;22;19922;-86
2022/08/05 11:06:01;;;;;;;;;;;;;;;;;;6261824;22;19914;-86
2022/08/05 11:08:26;;;;;;;;;;;;;;;;;;6262827;22;19933;-86
2022/08/05 11:10:52;;;;;;;;;;;;;;;;;;6261718;22;19915;-86
2022/08/05 11:13:18;;;;;;;;;;;;;;;;;;6260592;22;19914;-86
2022/08/05 11:15:46;;;;;;;;;;;;;;;;;;6260447;22;20245;-88
2022/08/05 11:18:12;;;;;;;;;;;;;;;;;;6229537;22;19918;-85
2022/08/05 11:20:38;;;;;;;;;;;;;;;;;;6282462;22;19910;-85
2022/08/05 11:23:06;;;;;;;;;;;;;;;;;;6287930;22;20498;-82
2022/08/05 11:25:33;;;;;;;;;;;;;;;;;;6267349;22;19968;-81
2022/08/05 11:27:59;;;;;;;;;;;;;;;;;;6291549;22;19910;-83
2022/08/05 11:30:25;;;;;;;;;;;;;;;;;;6293193;22;19941;-81
2022/08/05 11:32:50;;;;;;;;;;;;;;;;;;6292904;22;20331;-82
2022/08/05 11:35:16;;;;;;;;;;;;;;;;;;6264241;22;20246;-81
2022/08/05 11:37:43;;;;;;;;;;;;;;;;;;6293541;22;19911;-82
2022/08/05 11:40:09;;;;;;;;;;;;;;;;;;6265828;22;19987;-82
2022/08/05 11:42:35;;;;;;;;;;;;;;;;;;6245541;22;19915;-82
2022/08/05 11:45:02;;;;;;;;;;;;;;;;;;6313630;22;19918;-81
2022/08/05 11:47:28;;;;;;;;;;;;;;;;;;6302338;22;20170;-83
2022/08/05 11:49:55;;;;;;;;;;;;;;;;;;6266203;22;20005;-83
2022/08/05 11:52:20;;;;;;;;;;;;;;;;;;6292623;22;19914;-83
2022/08/05 11:54:46;;;;;;;;;;;;;;;;;;6291037;22;20601;-82
2022/08/05 11:57:12;;;;;;;;;;;;;;;;;;6294252;22;19981;-82
2022/08/05 11:59:39;;;;;;;;;;;;;;;;;;6267130;22;19919;-82
2022/08/05 12:02:05;;;;;;;;;;;;;;;;;;6291550;22;19996;-83
2022/08/05 12:04:31;;;;;;;;;;;;;;;;;;6292347;22;19915;-83
2022/08/05 12:06:57;;;;;;;;;;;;;;;;;;6292176;22;20268;-82
2022/08/05 12:09:24;;;;;;;;;;;;;;;;;;6288592;22;20018;-83
2022/08/05 12:11:50;;;;;;;;;;;;;;;;;;6260425;22;19980;-82
2022/08/05 12:14:16;;;;;;;;;;;;;;;;;;6259316;22;20328;-84
2022/08/05 12:16:42;;;;;;;;;;;;;;;;;;6260870;22;20322;-83
2022/08/05 12:19:11;;;;;;;;;;;;;;;;;;6286511;22;19918;-83
2022/08/05 12:21:37;;;;;;;;;;;;;;;;;;6291162;22;19910;-82
2022/08/05 12:24:06;;;;;;;;;;;;;;;;;;6262418;22;20049;-83
2022/08/05 12:26:32;;;;;;;;;;;;;;;;;;6291132;22;20331;-83
2022/08/05 12:28:58;;;;;;;;;;;;;;;;;;6262893;22;19968;-83
2022/08/05 12:31:24;;;;;;;;;;;;;;;;;;6263531;22;19915;-83
2022/08/05 12:33:51;;;;;;;;;;;;;;;;;;6294392;22;20292;-84
2022/08/05 12:36:17;;;;;;;;;;;;;;;;;;6264635;22;20353;-84
2022/08/05 12:38:43;;;;;;;;;;;;;;;;;;6291105;22;19926;-83
2022/08/05 12:41:09;;;;;;;;;;;;;;;;;;6289625;22;20447;-83
2022/08/05 12:43:35;;;;;;;;;;;;;;;;;;6290033;22;19998;-83
2022/08/05 12:46:01;;;;;;;;;;;;;;;;;;6288343;22;19910;-84
2022/08/05 12:48:27;;;;;;;;;;;;;;;;;;6264681;22;19934;-83
2022/08/05 12:50:53;;;;;;;;;;;;;;;;;;6290846;22;19915;-83
2022/08/05 12:53:19;;;;;;;;;;;;;;;;;;6288492;22;19945;-83
2022/08/05 12:55:45;;;;;;;;;;;;;;;;;;6266007;22;20316;-84
2022/08/05 12:58:11;;;;;;;;;;;;;;;;;;6264148;22;19911;-82
2022/08/05 13:00:37;;;;;;;;;;;;;;;;;;6292391;22;19922;-83
2022/08/05 13:03:03;;;;;;;;;;;;;;;;;;6263135;22;20561;-83
2022/08/05 13:05:29;;;;;;;;;;;;;;;;;;6294130;22;20200;-83
2022/08/05 13:07:55;;;;;;;;;;;;;;;;;;6267951;22;20024;-83
2022/08/05 13:10:22;;;;;;;;;;;;;;;;;;6290400;22;19917;-82
2022/08/05 13:12:48;;;;;;;;;;;;;;;;;;6289337;22;19914;-85
2022/08/05 13:15:14;;;;;;;;;;;;;;;;;;6261696;22;19918;-84
2022/08/05 13:17:40;;;;;;;;;;;;;;;;;;6261358;22;19915;-83
2022/08/05 13:20:07;;;;;;;;;;;;;;;;;;6261173;22;19918;-83
2022/08/05 13:22:33;;;;;;;;;;;;;;;;;;6261901;22;19914;-85
2022/08/05 13:24:59;;;;;;;;;;;;;;;;;;6288493;22;19921;-82
2022/08/05 13:27:24;;;;;;;;;;;;;;;;;;6289263;22;19917;-84
2022/08/05 13:29:51;;;;;;;;;;;;;;;;;;6288605;22;19915;-84
2022/08/05 13:32:17;;;;;;;;;;;;;;;;;;6260087;22;19921;-85
2022/08/05 13:34:43;;;;;;;;;;;;;;;;;;6289674;22;19919;-84
2022/08/05 13:37:09;;;;;;;;;;;;;;;;;;6262019;22;19974;-84
2022/08/05 13:39:35;;;;;;;;;;;;;;;;;;6290386;22;19919;-84
2022/08/05 13:42:00;;;;;;;;;;;;;;;;;;6289936;22;19911;-85
2022/08/05 13:44:26;;;;;;;;;;;;;;;;;;6293453;22;20284;-85
2022/08/05 13:46:52;;;;;;;;;;;;;;;;;;6266245;22;20377;-84
2022/08/05 13:49:18;;;;;;;;;;;;;;;;;;6289256;22;19918;-85
2022/08/05 13:51:44;;;;;;;;;;;;;;;;;;6292350;22;19933;-85
2022/08/05 13:54:10;;;;;;;;;;;;;;;;;;6263732;22;19946;-84
2022/08/05 13:56:36;;;;;;;;;;;;;;;;;;6265142;22;19968;-85
2022/08/05 13:59:02;;;;;;;;;;;;;;;;;;6287207;22;19964;-85
2022/08/05 14:01:28;;;;;;;;;;;;;;;;;;6263397;22;19914;-84
2022/08/05 14:06:39;;;;;;;;;;;;;;;;;;6261377;22;19925;-86
2022/08/05 14:09:05;;;;;;;;;;;;;;;;;;6261236;22;19914;-87
2022/08/05 14:11:31;;;;;;;;;;;;;;;;;;6260650;22;19919;-87
2022/08/05 14:13:57;;;;;;;;;;;;;;;;;;6285246;22;19910;-86
2022/08/05 14:16:23;;;;;;;;;;;;;;;;;;6258637;22;19910;-84
2022/08/05 14:18:49;;;;;;;;;;;;;;;;;;6287918;22;20052;-83
2022/08/05 14:21:15;;;;;;;;;;;;;;;;;;6259964;22;20493;-83
2022/08/05 14:23:41;;;;;;;;;;;;;;;;;;6286832;22;19914;-83
2022/08/05 14:26:07;;;;;;;;;;;;;;;;;;6259954;22;19914;-83
2022/08/05 14:28:33;;;;;;;;;;;;;;;;;;6260540;22;20006;-82
2022/08/05 14:30:59;;;;;;;;;;;;;;;;;;6286871;22;20017;-82
2022/08/05 14:33:25;;;;;;;;;;;;;;;;;;6262019;22;19915;-83
2022/08/05 14:35:51;;;;;;;;;;;;;;;;;;6264578;22;20341;-82
2022/08/05 14:38:17;;;;;;;;;;;;;;;;;;6259563;22;19989;-82
2022/08/05 14:40:43;;;;;;;;;;;;;;;;;;6261559;22;20001;-83
2022/08/05 14:43:09;;;;;;;;;;;;;;;;;;6261806;22;19923;-82
2022/08/05 14:45:35;;;;;;;;;;;;;;;;;;6262355;22;19973;-83
2022/08/05 14:48:01;;;;;;;;;;;;;;;;;;6234101;22;19914;-83
2022/08/05 14:50:27;;;;;;;;;;;;;;;;;;6291251;22;19914;-84
2022/08/05 14:52:53;;;;;;;;;;;;;;;;;;6289491;22;20359;-84
2022/08/05 14:55:18;;;;;;;;;;;;;;;;;;6287719;22;19914;-83
2022/08/05 14:57:44;;;;;;;;;;;;;;;;;;6262207;22;20076;-84
2022/08/05 15:00:10;;;;;;;;;;;;;;;;;;6234261;22;19919;-84
2022/08/05 15:02:36;;;;;;;;;;;;;;;;;;6264542;22;19914;-83
2022/08/05 15:05:02;;;;;;;;;;;;;;;;;;6286939;22;19937;-83
2022/08/05 15:07:28;;;;;;;;;;;;;;;;;;6289029;22;19922;-83
2022/08/05 15:09:54;;;;;;;;;;;;;;;;;;6287962;22;20340;-85
2022/08/05 15:12:20;;;;;;;;;;;;;;;;;;6284280;22;20361;-84
2022/08/05 15:14:46;;;;;;;;;;;;;;;;;;6289355;22;19988;-83
2022/08/05 15:17:12;;;;;;;;;;;;;;;;;;6281990;22;19925;-84
2022/08/05 15:19:38;;;;;;;;;;;;;;;;;;6285156;22;19919;-84
2022/08/05 15:22:07;;;;;;;;;;;;;;;;;;6284663;22;19937;-85
2022/08/05 15:24:33;;;;;;;;;;;;;;;;;;6263473;22;20246;-85
2022/08/05 15:26:59;;;;;;;;;;;;;;;;;;6264617;22;20028;-84
2022/08/05 15:29:25;;;;;;;;;;;;;;;;;;6263901;22;19914;-84
2022/08/05 15:31:51;;;;;;;;;;;;;;;;;;6260699;22;19993;-85
2022/08/05 15:34:17;;;;;;;;;;;;;;;;;;6261788;22;19982;-84
2022/08/05 15:36:43;;;;;;;;;;;;;;;;;;6266743;22;19915;-85
2022/08/05 15:39:09;;;;;;;;;;;;;;;;;;6260014;22;19977;-84
2022/08/05 15:41:35;;;;;;;;;;;;;;;;;;6292036;22;19922;-85
2022/08/05 15:44:01;;;;;;;;;;;;;;;;;;6288688;22;19993;-85
2022/08/05 15:46:27;;;;;;;;;;;;;;;;;;6291623;22;20380;-84
2022/08/05 15:48:53;;;;;;;;;;;;;;;;;;6264925;22;19921;-84
2022/08/05 15:51:21;;;;;;;;;;;;;;;;;;6262437;22;19914;-82
2022/08/05 15:53:47;;;;;;;;;;;;;;;;;;6265532;22;19915;-83
2022/08/05 15:56:13;;;;;;;;;;;;;;;;;;6287790;22;19917;-84
2022/08/05 15:58:39;;;;;;;;;;;;;;;;;;6287511;22;20068;-83
2022/08/05 16:01:06;;;;;;;;;;;;;;;;;;6288109;22;19991;-83
2022/08/05 16:03:32;;;;;;;;;;;;;;;;;;6295877;22;19973;-83
2022/08/05 16:05:58;;;;;;;;;;;;;;;;;;6289370;22;19914;-83
2022/08/05 16:08:24;;;;;;;;;;;;;;;;;;6290392;22;19953;-83
2022/08/05 16:10:50;;;;;;;;;;;;;;;;;;6262735;22;19915;-83
2022/08/05 16:13:17;;;;;;;;;;;;;;;;;;6265108;22;19922;-84
2022/08/05 16:15:43;;;;;;;;;;;;;;;;;;6239226;22;19915;-85
2022/08/05 16:18:11;;;;;;;;;;;;;;;;;;6264400;22;19941;-85
2022/08/05 16:20:37;;;;;;;;;;;;;;;;;;6294942;22;19919;-85
2022/08/05 16:23:02;;;;;;;;;;;;;;;;;;6294310;22;19911;-84
2022/08/05 16:25:29;;;;;;;;;;;;;;;;;;6294214;22;20008;-84
2022/08/05 16:27:55;;;;;;;;;;;;;;;;;;6289878;22;19915;-84
2022/08/05 16:30:21;;;;;;;;;;;;;;;;;;6291124;22;19915;-84
2022/08/05 16:32:47;;;;;;;;;;;;;;;;;;6269548;22;19914;-84
2022/08/05 16:35:13;;;;;;;;;;;;;;;;;;6236823;22;19910;-84
2022/08/05 16:37:39;;;;;;;;;;;;;;;;;;6294392;22;20346;-84
2022/08/05 16:40:05;;;;;;;;;;;;;;;;;;6265673;22;19997;-84
2022/08/05 16:42:31;;;;;;;;;;;;;;;;;;6294183;22;19914;-84
2022/08/05 16:44:57;;;;;;;;;;;;;;;;;;6265613;22;19915;-85
2022/08/05 16:47:26;;;;;;;;;;;;;;;;;;6265217;22;19915;-85
2022/08/05 16:49:55;;;;;;;;;;;;;;;;;;6291212;22;19911;-85